Time;durP1;ratioP1;P1;durP2;ratioP2;P2;SDS_P1;SDS_P2;PMS_P1;PMS_P2;Temp;Humidity;BMP_temperature;BMP_pressure;BME280_temperature;BME280_humidity;BME280_pressure;Samples;Min_cycle;Max_cycle;Signal;HPM_P1;HPM_P2
2023/11/11 00:00:28;;;;;;;;;;;;;;;20.05;63.96;100002.22;7398222;19;1139;-42
2023/11/11 00:02:56;;;;;;;;;;;;;;;20.10;64.08;99989.16;7397066;19;1829;-42
2023/11/11 00:05:25;;;;;;;;;;;;;;;20.09;63.93;99989.31;7396323;19;1618;-42
2023/11/11 00:07:53;;;;;;;;;;;;;;;20.12;63.69;99989.84;7397520;19;1494;-42
2023/11/11 00:10:22;;;;;;;;;;;;;;;20.11;63.59;99982.78;7396191;19;1934;-42
2023/11/11 00:12:51;;;;;;;;;;;;;;;20.15;63.77;99970.72;7397171;19;1369;-42
2023/11/11 00:15:24;;;;;;;;;;;;;;;20.11;63.47;99972.03;7397145;19;1541;-42
2023/11/11 00:17:54;;;;;;;;;;;;;;;20.08;63.77;99980.44;7396099;19;1455;-42
2023/11/11 00:20:22;;;;;;;;;;;;;;;20.01;63.76;99957.91;7393430;19;1845;-43
2023/11/11 00:22:52;;;;;;;;;;;;;;;19.98;64.09;99936.78;7396100;19;1491;-42
2023/11/11 00:25:22;;;;;;;;;;;;;;;19.99;63.84;99954.56;7395702;19;1392;-42
2023/11/11 00:27:51;;;;;;;;;;;;;;;19.99;63.96;99959.94;7395310;19;1606;-42
2023/11/11 00:30:20;;;;;;;;;;;;;;;19.98;64.16;99966.31;7396238;19;1518;-42
2023/11/11 00:32:54;;;;;;;;;;;;;;;19.97;64.19;99972.66;7396066;19;1590;-42
2023/11/11 00:35:22;;;;;;;;;;;;;;;19.97;64.09;99962.75;7395398;19;1486;-42
2023/11/11 00:37:50;;;;;;;;;;;;;;;19.96;64.20;99955.72;7395058;19;1384;-42
2023/11/11 00:40:19;;;;;;;;;;;;;;;19.99;63.85;99927.72;7392816;19;1845;-42
2023/11/11 00:42:47;;;;;;;;;;;;;;;20.00;64.10;99926.72;7395439;19;1571;-42
2023/11/11 00:45:16;;;;;;;;;;;;;;;19.97;64.23;99911.78;7395294;19;1588;-42
2023/11/11 00:47:44;;;;;;;;;;;;;;;19.98;64.21;99892.00;7394563;19;1594;-42
2023/11/11 00:50:16;;;;;;;;;;;;;;;20.01;63.75;99898.88;7395381;19;1119;-42
2023/11/11 00:52:44;;;;;;;;;;;;;;;20.03;63.97;99888.81;7395843;19;1247;-42
2023/11/11 00:55:12;;;;;;;;;;;;;;;20.01;64.02;99890.81;7394396;19;1364;-42
2023/11/11 00:57:43;;;;;;;;;;;;;;;19.99;63.98;99895.53;7393704;19;1535;-42
2023/11/11 01:00:12;;;;;;;;;;;;;;;19.97;64.15;99893.00;7392094;19;1850;-42
2023/11/11 01:02:41;;;;;;;;;;;;;;;19.94;64.19;99860.31;7393409;19;1580;-42
2023/11/11 01:05:11;;;;;;;;;;;;;;;19.96;63.95;99890.50;7394403;19;1577;-42
2023/11/11 01:07:42;;;;;;;;;;;;;;;19.94;64.31;99887.97;7393912;19;1528;-42
2023/11/11 01:10:11;;;;;;;;;;;;;;;19.92;64.09;99856.94;7394678;19;1573;-42
2023/11/11 01:12:40;;;;;;;;;;;;;;;19.99;64.20;99890.16;7393213;19;1751;-42
2023/11/11 01:15:12;;;;;;;;;;;;;;;20.04;63.88;99891.34;7394271;19;1791;-42
2023/11/11 01:17:40;;;;;;;;;;;;;;;19.98;63.94;99891.16;7394753;19;1562;-42
2023/11/11 01:20:09;;;;;;;;;;;;;;;19.96;64.17;99867.19;7391065;19;1846;-42
2023/11/11 01:22:38;;;;;;;;;;;;;;;19.95;64.03;99884.25;7394464;19;1571;-42
2023/11/11 01:25:12;;;;;;;;;;;;;;;19.92;63.97;99873.03;7394203;19;1582;-42
2023/11/11 01:27:40;;;;;;;;;;;;;;;19.94;64.05;99887.13;7392052;19;1475;-43
2023/11/11 01:30:09;;;;;;;;;;;;;;;19.99;63.71;99876.72;7392183;19;1492;-42
2023/11/11 01:32:38;;;;;;;;;;;;;;;19.96;63.87;99874.41;7393098;19;1510;-42
2023/11/11 01:35:07;;;;;;;;;;;;;;;19.93;64.01;99874.72;7392694;19;2109;-42
2023/11/11 01:37:35;;;;;;;;;;;;;;;19.94;64.05;99882.59;7392991;19;1518;-42
2023/11/11 01:40:04;;;;;;;;;;;;;;;19.93;64.13;99863.97;7391307;19;1848;-42
2023/11/11 01:42:34;;;;;;;;;;;;;;;19.92;63.98;99862.31;7392935;19;1368;-42
2023/11/11 01:45:00;;;;;;;;;;;;;;;19.90;64.16;99861.63;7392728;19;1622;-42
2023/11/11 01:47:29;;;;;;;;;;;;;;;19.92;64.24;99865.00;7392359;19;1518;-42
2023/11/11 01:49:57;;;;;;;;;;;;;;;19.91;64.20;99855.25;7392420;19;1534;-42
2023/11/11 01:52:27;;;;;;;;;;;;;;;19.91;64.22;99841.84;7392615;19;1823;-42
2023/11/11 01:54:55;;;;;;;;;;;;;;;19.93;64.28;99870.19;7376691;19;1630;-42
2023/11/11 01:57:24;;;;;;;;;;;;;;;19.93;64.02;99839.81;7392832;19;1647;-42
2023/11/11 01:59:57;;;;;;;;;;;;;;;19.92;64.15;99848.91;7390676;19;1865;-42
2023/11/11 02:02:26;;;;;;;;;;;;;;;19.95;64.12;99840.50;7392955;19;1447;-42
2023/11/11 02:04:54;;;;;;;;;;;;;;;19.94;63.82;99833.47;7388496;19;1415;-42
2023/11/11 02:07:23;;;;;;;;;;;;;;;19.93;63.72;99831.78;7392148;19;1496;-42
2023/11/11 02:09:51;;;;;;;;;;;;;;;19.87;63.71;99822.53;7391921;19;1496;-42
2023/11/11 02:12:20;;;;;;;;;;;;;;;19.89;64.03;99835.78;7392609;19;1404;-42
2023/11/11 02:14:49;;;;;;;;;;;;;;;19.90;64.15;99837.50;7389487;19;1523;-42
2023/11/11 02:17:21;;;;;;;;;;;;;;;19.88;64.13;99836.81;7391187;19;1633;-42
2023/11/11 02:19:49;;;;;;;;;;;;;;;19.88;64.03;99834.97;7390682;19;1850;-42
2023/11/11 02:22:18;;;;;;;;;;;;;;;19.91;64.04;99812.31;7392297;19;1452;-42
2023/11/11 02:24:49;;;;;;;;;;;;;;;20.20;63.85;99801.97;7390976;19;1570;-42
2023/11/11 02:27:18;;;;;;;;;;;;;;;20.90;62.01;99792.53;7391247;19;1482;-42
2023/11/11 02:29:46;;;;;;;;;;;;;;;21.66;59.94;99771.41;7390287;19;1771;-42
2023/11/11 02:32:15;;;;;;;;;;;;;;;22.12;58.62;99771.41;7391022;19;1550;-42
2023/11/11 02:34:43;;;;;;;;;;;;;;;22.01;58.97;99774.56;7391078;19;1435;-42
2023/11/11 02:37:12;;;;;;;;;;;;;;;22.12;58.77;99771.41;7391473;19;1547;-42
2023/11/11 02:39:40;;;;;;;;;;;;;;;22.23;58.53;99757.53;7391497;19;1871;-42
2023/11/11 02:42:11;;;;;;;;;;;;;;;22.18;58.53;99753.72;7399402;19;1578;-42
2023/11/11 02:44:40;;;;;;;;;;;;;;;22.19;58.55;99772.38;7398896;19;1823;-42
2023/11/11 02:47:08;;;;;;;;;;;;;;;22.24;58.45;99771.88;7399596;19;1443;-42
2023/11/11 02:49:36;;;;;;;;;;;;;;;22.27;58.53;99773.38;7397765;19;2084;-42
2023/11/11 02:52:05;;;;;;;;;;;;;;;22.29;58.56;99776.72;7397772;19;1834;-43
2023/11/11 02:54:34;;;;;;;;;;;;;;;22.30;58.57;99794.56;7395667;19;2364;-43
2023/11/11 02:57:02;;;;;;;;;;;;;;;22.35;58.31;99793.00;7383218;19;1543;-43
2023/11/11 02:59:33;;;;;;;;;;;;;;;22.37;58.31;99808.97;7394809;19;1859;-43
2023/11/11 03:02:02;;;;;;;;;;;;;;;22.40;58.34;99805.91;7396842;19;1618;-43
2023/11/11 03:04:30;;;;;;;;;;;;;;;22.33;58.33;99795.03;7397892;19;1805;-43
2023/11/11 03:06:59;;;;;;;;;;;;;;;22.34;58.48;99812.03;7398761;19;1099;-42
2023/11/11 03:09:27;;;;;;;;;;;;;;;22.34;58.36;99799.41;7395850;19;1519;-43
2023/11/11 03:11:56;;;;;;;;;;;;;;;22.36;58.51;99799.22;7398098;19;1518;-42
2023/11/11 03:14:25;;;;;;;;;;;;;;;22.36;58.39;99788.44;7398298;19;1518;-43
2023/11/11 03:16:56;;;;;;;;;;;;;;;22.49;58.08;99790.53;7397092;19;1444;-43
2023/11/11 03:19:24;;;;;;;;;;;;;;;22.53;57.90;99791.84;7395548;19;1865;-45
2023/11/11 03:21:54;;;;;;;;;;;;;;;22.48;58.25;99786.97;7397762;19;1459;-45
2023/11/11 03:24:23;;;;;;;;;;;;;;;22.51;58.08;99786.63;7397926;19;1543;-43
2023/11/11 03:26:51;;;;;;;;;;;;;;;22.44;58.26;99780.28;7397836;19;1491;-42
2023/11/11 03:29:20;;;;;;;;;;;;;;;22.52;58.30;99766.75;7398069;19;1601;-41
2023/11/11 03:31:48;;;;;;;;;;;;;;;22.54;58.08;99777.34;7396618;19;1832;-42
2023/11/11 03:34:19;;;;;;;;;;;;;;;22.55;57.92;99785.25;7398655;19;1103;-41
2023/11/11 03:36:47;;;;;;;;;;;;;;;22.62;57.79;99755.69;7398132;19;1562;-41
2023/11/11 03:39:16;;;;;;;;;;;;;;;22.67;57.87;99764.06;7394771;19;1841;-42
2023/11/11 03:41:45;;;;;;;;;;;;;;;22.76;57.91;99773.75;7330631;19;12859;-42
2023/11/11 03:44:13;;;;;;;;;;;;;;;22.73;57.95;99762.50;7396532;19;1372;-42
2023/11/11 03:46:42;;;;;;;;;;;;;;;22.70;57.91;99746.69;7396837;19;1483;-41
2023/11/11 03:49:10;;;;;;;;;;;;;;;22.70;57.89;99747.56;7398213;19;1431;-41
2023/11/11 03:51:42;;;;;;;;;;;;;;;22.75;57.58;99750.50;7392899;19;1561;-41
2023/11/11 03:54:10;;;;;;;;;;;;;;;22.74;57.76;99756.94;7395568;19;1578;-42
2023/11/11 03:56:38;;;;;;;;;;;;;;;22.44;58.53;99761.41;7381998;19;1907;-42
2023/11/11 03:59:07;;;;;;;;;;;;;;;22.02;59.35;99765.44;7397880;19;1543;-41
2023/11/11 04:01:36;;;;;;;;;;;;;;;21.76;60.08;99785.47;7394294;19;1849;-42
2023/11/11 04:04:05;;;;;;;;;;;;;;;21.65;60.41;99785.88;7397904;19;1365;-42
2023/11/11 04:06:33;;;;;;;;;;;;;;;21.52;60.44;99781.06;7398028;19;1565;-42
2023/11/11 04:09:04;;;;;;;;;;;;;;;21.43;60.76;99772.22;7396179;19;1248;-42
2023/11/11 04:11:33;;;;;;;;;;;;;;;21.43;60.91;99793.72;7395611;19;1823;-42
2023/11/11 04:14:02;;;;;;;;;;;;;;;21.31;61.07;99778.97;7395749;19;1551;-42
2023/11/11 04:16:31;;;;;;;;;;;;;;;21.28;61.08;99790.06;7395513;19;1621;-42
2023/11/11 04:19:00;;;;;;;;;;;;;;;21.25;61.17;99790.41;7395826;19;1294;-41
2023/11/11 04:21:28;;;;;;;;;;;;;;;21.16;61.08;99783.38;7392881;19;1857;-42
2023/11/11 04:23:57;;;;;;;;;;;;;;;21.14;61.07;99783.56;7395657;19;1542;-41
2023/11/11 04:26:28;;;;;;;;;;;;;;;21.16;60.96;99786.06;7394390;19;1574;-42
2023/11/11 04:28:58;;;;;;;;;;;;;;;21.08;61.31;99792.31;7396700;19;1606;-42
2023/11/11 04:31:27;;;;;;;;;;;;;;;21.13;61.01;99797.16;7396871;19;1024;-42
2023/11/11 04:33:55;;;;;;;;;;;;;;;21.13;61.04;99787.25;7395876;19;1606;-42
2023/11/11 04:36:24;;;;;;;;;;;;;;;21.02;60.92;99801.91;7395973;19;1356;-42
2023/11/11 04:38:53;;;;;;;;;;;;;;;20.88;61.77;99785.66;7396221;19;1558;-42
2023/11/11 04:41:23;;;;;;;;;;;;;;;20.78;61.72;99778.63;7393701;19;1867;-48
2023/11/11 04:43:54;;;;;;;;;;;;;;;20.64;62.18;99769.41;7395524;19;1494;-42
2023/11/11 04:46:22;;;;;;;;;;;;;;;20.61;62.21;99774.28;7394809;19;1373;-42
2023/11/11 04:48:51;;;;;;;;;;;;;;;20.59;62.40;99774.47;7396677;19;1133;-43
2023/11/11 04:51:19;;;;;;;;;;;;;;;20.54;62.41;99751.78;7394160;19;1599;-43
2023/11/11 04:53:47;;;;;;;;;;;;;;;20.50;62.41;99770.06;7392710;19;1498;-43
2023/11/11 04:56:16;;;;;;;;;;;;;;;20.55;62.37;99762.34;7379648;19;1559;-43
2023/11/11 04:58:44;;;;;;;;;;;;;;;20.54;62.46;99765.22;7393384;19;1459;-43
2023/11/11 05:01:15;;;;;;;;;;;;;;;20.66;62.35;99763.88;7392515;19;1841;-43
2023/11/11 05:03:45;;;;;;;;;;;;;;;20.80;61.88;99757.78;7394929;19;1257;-43
2023/11/11 05:06:14;;;;;;;;;;;;;;;20.86;61.54;99751.72;7393451;19;1829;-42
2023/11/11 05:08:42;;;;;;;;;;;;;;;20.83;61.57;99765.50;7393726;19;1557;-42
2023/11/11 05:11:10;;;;;;;;;;;;;;;20.80;61.66;99749.72;7393779;19;1527;-43
2023/11/11 05:13:41;;;;;;;;;;;;;;;20.86;61.51;99750.88;7394034;19;1545;-43
2023/11/11 05:16:20;;;;;;;;;;;;;;;20.74;61.82;99734.28;7393474;19;1582;-43
2023/11/11 05:18:51;;;;;;;;;;;;;;;20.84;61.70;99739.47;7393788;19;1577;-43
2023/11/11 05:21:20;;;;;;;;;;;;;;;20.82;61.65;99734.25;7392258;19;1891;-42
2023/11/11 05:23:48;;;;;;;;;;;;;;;20.86;61.62;99749.03;7393870;19;1553;-42
2023/11/11 05:26:17;;;;;;;;;;;;;;;20.83;61.47;99738.66;7394629;19;1492;-43
2023/11/11 05:28:45;;;;;;;;;;;;;;;20.80;61.50;99746.22;7394343;19;1625;-43
2023/11/11 05:31:13;;;;;;;;;;;;;;;20.70;61.71;99737.50;7392860;19;1530;-43
2023/11/11 05:33:42;;;;;;;;;;;;;;;20.61;62.70;99740.22;7390192;19;1563;-42
2023/11/11 05:36:13;;;;;;;;;;;;;;;20.65;62.21;99746.91;7392606;19;1535;-42
2023/11/11 05:38:42;;;;;;;;;;;;;;;20.74;62.46;99736.16;7391724;19;1632;-42
2023/11/11 05:41:10;;;;;;;;;;;;;;;20.93;62.13;99756.41;7391770;19;1846;-43
2023/11/11 05:43:38;;;;;;;;;;;;;;;21.45;60.89;99743.28;7388048;19;1407;-43
2023/11/11 05:46:07;;;;;;;;;;;;;;;22.08;59.53;99745.88;7387114;19;1594;-43
2023/11/11 05:48:32;;;;;;;;;;;;;;;22.43;58.59;99727.44;7388165;19;1737;-42
2023/11/11 05:51:00;;;;;;;;;;;;;;;22.55;58.19;99725.97;7393201;19;1488;-42
2023/11/11 05:53:33;;;;;;;;;;;;;;;22.49;58.13;99729.41;7392464;19;1506;-42
2023/11/11 05:56:02;;;;;;;;;;;;;;;22.30;59.03;99735.28;7377063;19;1432;-43
2023/11/11 05:58:30;;;;;;;;;;;;;;;22.29;59.20;99739.03;7391630;19;1367;-42
2023/11/11 06:00:59;;;;;;;;;;;;;;;22.26;59.62;99739.38;7391557;19;1842;-42
2023/11/11 06:03:28;;;;;;;;;;;;;;;22.32;59.71;99750.28;7392714;19;1224;-42
2023/11/11 06:05:56;;;;;;;;;;;;;;;22.29;59.59;99750.63;7391589;19;1487;-42
2023/11/11 06:08:25;;;;;;;;;;;;;;;22.32;59.85;99754.81;7390603;19;1549;-42
2023/11/11 06:10:53;;;;;;;;;;;;;;;;;;7392273;19;1375;-42
2023/11/11 06:13:24;;;;;;;;;;;;;;;22.36;60.01;99726.47;7390694;19;1499;-42
2023/11/11 06:15:52;;;;;;;;;;;;;;;22.37;59.98;99733.56;7389221;19;1486;-42
2023/11/11 06:18:21;;;;;;;;;;;;;;;21.86;61.37;99742.19;7389163;19;1447;-43
2023/11/11 06:20:49;;;;;;;;;;;;;;;21.52;62.14;99731.81;7390997;19;1849;-43
2023/11/11 06:23:17;;;;;;;;;;;;;;;21.38;62.25;99730.69;7391231;19;1521;-41
2023/11/11 06:25:46;;;;;;;;;;;;;;;21.25;62.90;99734.78;7337375;19;13356;-42
2023/11/11 06:28:15;;;;;;;;;;;;;;;21.26;63.01;99736.44;7390167;19;1569;-42
2023/11/11 06:30:46;;;;;;;;;;;;;;;21.43;62.69;99737.25;7388692;19;1578;-42
2023/11/11 06:33:15;;;;;;;;;;;;;;;21.44;62.89;99716.56;7390186;19;1569;-42
2023/11/11 06:35:43;;;;;;;;;;;;;;;21.38;63.07;99715.38;7390022;19;1515;-42
2023/11/11 06:38:12;;;;;;;;;;;;;;;21.39;62.94;99689.34;7389637;19;1662;-42
2023/11/11 06:40:40;;;;;;;;;;;;;;;21.22;63.53;99684.03;7385917;19;1845;-44
2023/11/11 06:43:08;;;;;;;;;;;;;;;21.20;63.28;99683.38;7388892;19;1678;-41
2023/11/11 06:45:39;;;;;;;;;;;;;;;21.55;62.67;99689.25;7385561;19;1774;-41
2023/11/11 06:48:10;;;;;;;;;;;;;;;22.13;61.23;99692.34;7390150;19;1525;-42
2023/11/11 06:50:38;;;;;;;;;;;;;;;22.60;59.87;99704.69;7392054;19;1625;-42
2023/11/11 06:53:09;;;;;;;;;;;;;;;22.88;59.47;99705.88;7390632;19;1634;-41
2023/11/11 06:55:37;;;;;;;;;;;;;;;22.76;59.55;99686.66;7392070;19;1546;-42
2023/11/11 06:58:06;;;;;;;;;;;;;;;22.11;60.76;99710.53;7374798;19;1506;-42
2023/11/11 07:00:34;;;;;;;;;;;;;;;21.67;61.76;99708.53;7389817;19;1845;-42
2023/11/11 07:03:03;;;;;;;;;;;;;;;21.54;62.74;99709.09;7387758;19;1252;-41
2023/11/11 07:05:34;;;;;;;;;;;;;;;21.73;62.17;99713.19;7388255;19;1412;-42
2023/11/11 07:08:05;;;;;;;;;;;;;;;22.12;61.35;99720.25;7389616;19;1447;-42
2023/11/11 07:10:33;;;;;;;;;;;;;;;22.35;60.27;99714.88;7388917;19;1529;-42
2023/11/11 07:13:01;;;;;;;;;;;;;;;22.45;60.17;99720.00;7387787;19;1569;-42
2023/11/11 07:15:30;;;;;;;;;;;;;;;22.48;60.18;99700.75;7389211;19;1395;-42
2023/11/11 07:17:59;;;;;;;;;;;;;;;22.40;60.07;99684.69;7389519;19;1542;-42
2023/11/11 07:20:28;;;;;;;;;;;;;;;22.56;59.85;99692.63;7387383;19;2375;-42
2023/11/11 07:22:59;;;;;;;;;;;;;;;22.61;59.66;99698.28;7390226;19;1568;-41
2023/11/11 07:25:27;;;;;;;;;;;;;;;22.48;59.84;99681.91;7388145;19;1409;-41
2023/11/11 07:27:55;;;;;;;;;;;;;;;22.51;59.98;99691.50;7395411;19;1594;-41
2023/11/11 07:30:23;;;;;;;;;;;;;;;22.18;60.82;99684.56;7397046;19;1639;-42
2023/11/11 07:32:52;;;;;;;;;;;;;;;21.87;61.46;99702.66;7394729;19;1468;-41
2023/11/11 07:35:20;;;;;;;;;;;;;;;21.68;62.21;99699.41;7395333;19;1455;-41
2023/11/11 07:37:49;;;;;;;;;;;;;;;21.53;62.71;99677.00;7397627;19;1467;-42
2023/11/11 07:40:20;;;;;;;;;;;;;;;21.44;62.89;99684.28;7395220;19;1462;-41
2023/11/11 07:42:49;;;;;;;;;;;;;;;21.36;63.22;99669.00;7393966;19;1846;-41
2023/11/11 07:45:23;;;;;;;;;;;;;;;21.35;63.34;99677.28;7394895;19;1346;-41
2023/11/11 07:47:51;;;;;;;;;;;;;;;21.28;63.86;99663.69;7397248;19;1384;-41
2023/11/11 07:50:21;;;;;;;;;;;;;;;21.25;63.57;99651.44;7397453;19;1503;-41
2023/11/11 07:52:50;;;;;;;;;;;;;;;21.24;63.79;99633.59;7398880;19;1059;-41
2023/11/11 07:55:21;;;;;;;;;;;;;;;21.22;63.96;99648.25;7396149;19;1480;-41
2023/11/11 07:57:49;;;;;;;;;;;;;;;21.24;63.72;99640.84;7379954;19;2464;-41
2023/11/11 08:00:19;;;;;;;;;;;;;;;21.57;62.92;99608.38;7395099;19;1483;-41
2023/11/11 08:02:47;;;;;;;;;;;;;;;22.01;61.79;99627.31;7394834;19;1856;-41
2023/11/11 08:05:16;;;;;;;;;;;;;;;21.91;62.17;99623.22;7394684;19;1476;-41
2023/11/11 08:07:44;;;;;;;;;;;;;;;21.59;62.87;99598.28;7396317;19;1440;-41
2023/11/11 08:10:13;;;;;;;;;;;;;;;21.51;63.39;99599.19;7395147;19;1573;-41
2023/11/11 08:12:44;;;;;;;;;;;;;;;21.39;63.42;99589.84;7396580;19;1504;-41
2023/11/11 08:15:12;;;;;;;;;;;;;;;21.27;64.12;99605.56;7396565;19;1411;-41
2023/11/11 08:17:41;;;;;;;;;;;;;;;21.31;65.39;99601.50;7396039;19;1593;-41
2023/11/11 08:20:11;;;;;;;;;;;;;;;21.37;66.38;99599.94;7395198;19;1519;-41
2023/11/11 08:22:39;;;;;;;;;;;;;;;21.66;64.79;99572.31;7393074;19;1909;-41
2023/11/11 08:25:08;;;;;;;;;;;;;;;21.98;64.60;99583.78;7392049;19;2390;-41
2023/11/11 08:27:37;;;;;;;;;;;;;;;21.74;64.88;99588.38;7392743;19;1443;-40
2023/11/11 08:30:10;;;;;;;;;;;;;;;21.51;65.16;99588.41;7392120;19;1475;-40
2023/11/11 08:32:39;;;;;;;;;;;;;;;21.39;65.71;99593.34;7394706;19;1613;-40
2023/11/11 08:35:09;;;;;;;;;;;;;;;21.45;65.28;99602.59;7391363;19;1391;-40
2023/11/11 08:37:39;;;;;;;;;;;;;;;21.23;65.43;99594.31;7394300;19;1534;-41
2023/11/11 08:40:10;;;;;;;;;;;;;;;21.23;66.00;99609.63;7393420;19;1388;-41
2023/11/11 08:42:39;;;;;;;;;;;;;;;21.66;65.25;99599.22;7390839;19;1868;-41
2023/11/11 08:45:11;;;;;;;;;;;;;;;21.91;64.92;99599.00;7394854;19;1507;-41
2023/11/11 08:47:39;;;;;;;;;;;;;;;21.62;64.85;99593.34;7394679;19;1388;-40
2023/11/11 08:50:09;;;;;;;;;;;;;;;21.35;65.37;99602.81;7395862;19;1660;-40
2023/11/11 08:52:38;;;;;;;;;;;;;;;21.24;65.59;99605.91;7389955;19;1419;-40
2023/11/11 08:55:06;;;;;;;;;;;;;;;21.14;65.34;99621.41;7395079;19;1091;-41
2023/11/11 08:57:35;;;;;;;;;;;;;;;21.11;65.73;99611.88;7378975;19;1204;-41
2023/11/11 09:00:05;;;;;;;;;;;;;;;21.35;66.04;99608.19;7393703;19;1569;-41
2023/11/11 09:02:36;;;;;;;;;;;;;;;21.67;65.06;99598.22;7392534;19;1846;-41
2023/11/11 09:05:05;;;;;;;;;;;;;;;21.58;65.32;99600.13;7390440;19;1714;-41
2023/11/11 09:07:34;;;;;;;;;;;;;;;21.37;65.60;99599.94;7389885;19;1418;-41
2023/11/11 09:10:03;;;;;;;;;;;;;;;21.31;65.69;99593.41;7394209;19;1737;-42
2023/11/11 09:12:31;;;;;;;;;;;;;;;21.30;65.48;99588.22;7395496;19;1554;-41
2023/11/11 09:14:59;;;;;;;;;;;;;;;21.24;65.62;99589.75;7393433;19;1496;-42
2023/11/11 09:17:28;;;;;;;;;;;;;;;21.20;65.65;99593.81;7393092;19;1534;-42
2023/11/11 09:20:01;;;;;;;;;;;;;;;21.52;64.91;99562.34;7391311;19;1500;-40
2023/11/11 09:22:29;;;;;;;;;;;;;;;21.74;64.78;99571.41;7389511;19;1857;-42
2023/11/11 09:24:58;;;;;;;;;;;;;;;21.50;65.09;99564.38;7389959;19;1515;-42
2023/11/11 09:27:26;;;;;;;;;;;;;;;21.31;65.84;99565.66;7391424;19;1411;-42
2023/11/11 09:29:55;;;;;;;;;;;;;;;21.16;66.03;99560.25;7391774;19;1161;-42
2023/11/11 09:32:23;;;;;;;;;;;;;;;21.12;66.24;99564.31;7387787;19;2417;-42
2023/11/11 09:34:52;;;;;;;;;;;;;;;21.02;66.15;99546.56;7392439;19;1515;-42
2023/11/11 09:37:23;;;;;;;;;;;;;;;20.93;66.21;99553.03;7391044;19;1503;-42
2023/11/11 09:39:51;;;;;;;;;;;;;;;20.90;65.95;99550.69;7391658;19;1439;-41
2023/11/11 09:42:20;;;;;;;;;;;;;;;20.90;66.43;99534.56;7389750;19;1868;-41
2023/11/11 09:44:48;;;;;;;;;;;;;;;20.86;66.61;99541.28;7390539;19;1835;-41
2023/11/11 09:47:19;;;;;;;;;;;;;;;20.88;66.57;99536.56;7389877;19;1381;-42
2023/11/11 09:49:47;;;;;;;;;;;;;;;20.93;66.34;99550.34;7385843;19;1982;-41
2023/11/11 09:52:16;;;;;;;;;;;;;;;20.90;66.87;99550.69;7388059;19;1416;-41
2023/11/11 09:54:48;;;;;;;;;;;;;;;20.79;66.62;99533.13;7391791;19;1756;-41
2023/11/11 09:57:17;;;;;;;;;;;;;;;20.75;66.24;99525.56;7377097;19;1761;-55
2023/11/11 09:59:46;;;;;;;;;;;;;;;20.76;64.89;99517.34;7388486;19;1470;-41
2023/11/11 10:02:15;;;;;;;;;;;;;;;21.31;63.44;99488.56;7389792;19;1898;-41
2023/11/11 10:04:44;;;;;;;;;;;;;;;21.54;63.07;99467.00;7390166;19;1561;-41
2023/11/11 10:07:13;;;;;;;;;;;;;;;21.29;63.92;99473.59;7388692;19;1308;-62
2023/11/11 10:09:47;;;;;;;;;;;;;;;21.10;64.59;99544.84;7386652;19;1459;-54
2023/11/11 10:12:15;;;;;;;;;;;;;;;21.04;64.63;99547.22;7388300;19;1562;-41
2023/11/11 10:14:44;;;;;;;;;;;;;;;21.00;64.54;99496.69;7388729;19;1487;-41
2023/11/11 10:17:13;;;;;;;;;;;;;;;21.02;64.57;99490.13;7389498;19;1570;-41
2023/11/11 10:19:42;;;;;;;;;;;;;;;21.02;64.81;99490.13;7391059;19;1964;-41
2023/11/11 10:22:11;;;;;;;;;;;;;;;20.97;64.93;99508.66;7391329;19;1870;-41
2023/11/11 10:24:39;;;;;;;;;;;;;;;20.97;64.77;99497.91;7392803;19;1553;-43
2023/11/11 10:27:12;;;;;;;;;;;;;;;21.00;64.84;99491.31;7392604;19;1467;-41
2023/11/11 10:29:40;;;;;;;;;;;;;;;21.33;64.02;99491.91;7392380;19;1514;-41
2023/11/11 10:32:11;;;;;;;;;;;;;;;21.40;63.91;99486.63;7391959;19;1827;-41
2023/11/11 10:34:39;;;;;;;;;;;;;;;21.19;64.44;99484.63;7390637;19;1495;-41
2023/11/11 10:37:09;;;;;;;;;;;;;;;21.15;64.32;99468.03;7391787;19;1495;-41
2023/11/11 10:39:39;;;;;;;;;;;;;;;21.13;64.54;99456.63;7393097;19;1470;-41
2023/11/11 10:42:07;;;;;;;;;;;;;;;21.06;64.70;99455.66;7393067;19;1872;-41
2023/11/11 10:44:40;;;;;;;;;;;;;;;21.04;64.82;99447.75;7393231;19;1930;-41
2023/11/11 10:47:09;;;;;;;;;;;;;;;20.97;64.79;99436.09;7392280;19;1601;-41
2023/11/11 10:49:37;;;;;;;;;;;;;;;20.97;64.57;99417.28;7392037;19;1832;-41
2023/11/11 10:52:07;;;;;;;;;;;;;;;21.03;64.92;99424.59;7391992;19;1486;-41
2023/11/11 10:54:36;;;;;;;;;;;;;;;21.52;63.54;99411.72;7392693;19;1499;-41
2023/11/11 10:57:04;;;;;;;;;;;;;;;21.37;64.01;99400.94;7392586;19;1562;-41
2023/11/11 10:59:33;;;;;;;;;;;;;;;21.18;64.21;99404.97;7377517;19;1677;-41
2023/11/11 11:02:04;;;;;;;;;;;;;;;21.10;64.63;99415.81;7397296;19;1841;-41
2023/11/11 11:04:34;;;;;;;;;;;;;;;21.01;64.63;99413.22;7400336;19;1614;-41
2023/11/11 11:07:05;;;;;;;;;;;;;;;21.05;64.52;99413.69;7400419;19;1058;-41
2023/11/11 11:09:38;;;;;;;;;;;;;;;21.03;64.50;99391.53;7399781;19;1637;-41
2023/11/11 11:12:15;;;;;;;;;;;;;;;21.02;64.69;99406.78;7399737;19;1792;-41
2023/11/11 11:14:46;;;;;;;;;;;;;;;20.91;64.98;99406.41;7399221;19;1538;-41
2023/11/11 11:17:17;;;;;;;;;;;;;;;21.20;64.24;99425.28;7398920;19;1458;-41
2023/11/11 11:19:56;;;;;;;;;;;;;;;21.42;63.55;99372.44;7398401;19;1447;-41
2023/11/11 11:22:34;;;;;;;;;;;;;;;21.19;64.04;99369.84;7397408;19;1858;-41
2023/11/11 11:25:32;;;;;;;;;;;;;;;21.02;64.36;99387.97;7398431;19;1642;-41
2023/11/11 11:28:15;;;;;;;;;;;;;;;20.95;64.54;99365.56;7398676;19;1562;-41
2023/11/11 11:30:43;;;;;;;;;;;;;;;20.92;64.76;99365.91;7397964;19;1517;-41
2023/11/11 11:33:17;;;;;;;;;;;;;;;20.91;64.77;99363.41;7397702;19;1621;-41
2023/11/11 11:35:47;;;;;;;;;;;;;;;20.93;64.53;99372.97;7398531;19;1364;-41
2023/11/11 11:38:18;;;;;;;;;;;;;;;20.91;64.74;99368.78;7398596;19;1605;-41
2023/11/11 11:40:49;;;;;;;;;;;;;;;21.20;64.08;99373.38;7398567;19;1504;-41
2023/11/11 11:43:24;;;;;;;;;;;;;;;21.45;63.31;99366.75;7396505;19;1839;-41
2023/11/11 11:45:52;;;;;;;;;;;;;;;21.20;63.79;99368.00;7398109;19;1582;-41
2023/11/11 11:48:24;;;;;;;;;;;;;;;21.11;64.33;99379.84;7397239;19;1605;-41
2023/11/11 11:50:53;;;;;;;;;;;;;;;21.06;64.34;99373.16;7398791;19;1437;-41
2023/11/11 11:53:21;;;;;;;;;;;;;;;21.04;64.21;99372.50;7397796;19;1384;-41
2023/11/11 11:55:49;;;;;;;;;;;;;;;21.06;64.11;99362.41;7397446;19;1570;-41
2023/11/11 11:58:17;;;;;;;;;;;;;;;21.03;64.25;99367.34;7382193;19;1561;-41
2023/11/11 12:00:46;;;;;;;;;;;;;;;20.92;64.61;99365.09;7396926;19;1594;-41
2023/11/11 12:03:14;;;;;;;;;;;;;;;20.94;64.71;99369.25;7397342;19;1847;-41
2023/11/11 12:05:45;;;;;;;;;;;;;;;21.17;64.06;99379.09;7397407;19;1582;-41
2023/11/11 12:08:14;;;;;;;;;;;;;;;21.63;62.89;99379.81;7397441;19;1495;-41
2023/11/11 12:10:46;;;;;;;;;;;;;;;21.32;63.40;99366.50;7396701;19;1578;-41
2023/11/11 12:13:14;;;;;;;;;;;;;;;21.14;63.78;99374.94;7395905;19;1290;-41
2023/11/11 12:15:50;;;;;;;;;;;;;;;21.09;64.06;99368.44;7396479;19;1550;-41
2023/11/11 12:18:19;;;;;;;;;;;;;;;21.01;64.31;99359.44;7397688;19;1558;-41
2023/11/11 12:20:50;;;;;;;;;;;;;;;20.94;64.38;99369.25;7396778;19;1487;-41
2023/11/11 12:23:19;;;;;;;;;;;;;;;20.96;64.36;99371.75;7395351;19;1847;-41
2023/11/11 12:25:48;;;;;;;;;;;;;;;20.89;64.48;99377.03;7394187;19;2102;-41
2023/11/11 12:28:16;;;;;;;;;;;;;;;20.82;64.68;99370.72;7396289;19;1447;-41
2023/11/11 12:30:45;;;;;;;;;;;;;;;20.99;64.56;99360.63;7395725;19;1542;-41
2023/11/11 12:33:13;;;;;;;;;;;;;;;21.43;63.10;99355.34;7396583;19;1290;-41
2023/11/11 12:35:44;;;;;;;;;;;;;;;21.31;63.49;99354.09;7393941;19;1642;-41
2023/11/11 12:38:28;;;;;;;;;;;;;;;21.14;63.72;99366.03;7395646;19;1522;-41
2023/11/11 12:40:59;;;;;;;;;;;;;;;21.00;64.13;99373.91;7395392;19;1608;-41
2023/11/11 12:43:27;;;;;;;;;;;;;;;20.60;64.11;99307.94;7394243;19;1846;-41
2023/11/11 12:45:58;;;;;;;;;;;;;;;20.99;64.15;99372.25;7396638;19;1503;-41
2023/11/11 12:48:31;;;;;;;;;;;;;;;20.92;64.16;99376.66;7396484;19;1646;-41
2023/11/11 12:51:00;;;;;;;;;;;;;;;20.98;63.90;99381.31;7396054;19;1689;-41
2023/11/11 12:53:31;;;;;;;;;;;;;;;20.85;64.68;99386.47;7395310;19;1531;-41
2023/11/11 12:56:06;;;;;;;;;;;;;;;21.06;63.97;99364.28;7396297;19;1538;-41
2023/11/11 12:58:34;;;;;;;;;;;;;;;21.44;63.20;99366.91;7381527;19;1614;-41
2023/11/11 13:01:04;;;;;;;;;;;;;;;21.25;63.49;99370.97;7394302;19;1895;-41
2023/11/11 13:03:33;;;;;;;;;;;;;;;21.03;63.85;99370.84;7395034;19;1853;-41
2023/11/11 13:06:03;;;;;;;;;;;;;;;20.98;63.94;99385.84;7395000;19;1572;-41
2023/11/11 13:08:35;;;;;;;;;;;;;;;20.91;64.18;99401.03;7394822;19;1550;-41